sensor_id;sensor_type;location;lat;lon;timestamp;temperature;humidity
8832;DHT22;4452;50.756;4.472;2024-01-06T00:01:31;6.60;99.90
8832;DHT22;4452;50.756;4.472;2024-01-06T00:03:57;6.60;99.90
8832;DHT22;4452;50.756;4.472;2024-01-06T00:06:24;6.50;99.90
8832;DHT22;4452;50.756;4.472;2024-01-06T00:08:51;6.50;99.90
8832;DHT22;4452;50.756;4.472;2024-01-06T00:11:22;6.50;99.90
8832;DHT22;4452;50.756;4.472;2024-01-06T00:13:48;6.50;99.90
8832;DHT22;4452;50.756;4.472;2024-01-06T00:16:17;6.50;99.90
8832;DHT22;4452;50.756;4.472;2024-01-06T00:18:44;6.50;99.90
8832;DHT22;4452;50.756;4.472;2024-01-06T00:21:10;6.50;99.90
8832;DHT22;4452;50.756;4.472;2024-01-06T00:23:35;6.50;99.90
8832;DHT22;4452;50.756;4.472;2024-01-06T00:26:01;6.50;99.90
8832;DHT22;4452;50.756;4.472;2024-01-06T00:28:28;6.50;99.90
8832;DHT22;4452;50.756;4.472;2024-01-06T00:30:53;6.50;99.90
8832;DHT22;4452;50.756;4.472;2024-01-06T00:33:19;6.50;99.90
8832;DHT22;4452;50.756;4.472;2024-01-06T00:35:44;6.50;99.90
8832;DHT22;4452;50.756;4.472;2024-01-06T00:38:10;6.50;99.90
8832;DHT22;4452;50.756;4.472;2024-01-06T00:40:36;6.50;99.90
8832;DHT22;4452;50.756;4.472;2024-01-06T00:43:02;6.50;99.90
8832;DHT22;4452;50.756;4.472;2024-01-06T00:45:28;6.50;99.90
8832;DHT22;4452;50.756;4.472;2024-01-06T00:47:54;6.50;99.90
8832;DHT22;4452;50.756;4.472;2024-01-06T00:50:19;6.50;99.90
8832;DHT22;4452;50.756;4.472;2024-01-06T00:52:45;6.50;99.90
8832;DHT22;4452;50.756;4.472;2024-01-06T00:55:11;6.50;99.90
8832;DHT22;4452;50.756;4.472;2024-01-06T00:57:36;6.50;99.90
8832;DHT22;4452;50.756;4.472;2024-01-06T01:00:04;6.50;99.90
8832;DHT22;4452;50.756;4.472;2024-01-06T01:02:31;6.50;99.90
8832;DHT22;4452;50.756;4.472;2024-01-06T01:04:57;6.50;99.90
8832;DHT22;4452;50.756;4.472;2024-01-06T01:07:24;6.50;99.90
8832;DHT22;4452;50.756;4.472;2024-01-06T01:09:49;6.50;99.90
8832;DHT22;4452;50.756;4.472;2024-01-06T01:12:15;6.50;99.90
8832;DHT22;4452;50.756;4.472;2024-01-06T01:14:41;6.50;99.90
8832;DHT22;4452;50.756;4.472;2024-01-06T01:17:06;6.50;99.90
8832;DHT22;4452;50.756;4.472;2024-01-06T01:19:32;6.50;99.90
8832;DHT22;4452;50.756;4.472;2024-01-06T01:21:58;6.50;99.90
8832;DHT22;4452;50.756;4.472;2024-01-06T01:24:23;6.50;99.90
8832;DHT22;4452;50.756;4.472;2024-01-06T01:26:50;6.40;99.90
8832;DHT22;4452;50.756;4.472;2024-01-06T01:29:16;6.40;99.90
8832;DHT22;4452;50.756;4.472;2024-01-06T01:31:42;6.50;99.90
8832;DHT22;4452;50.756;4.472;2024-01-06T01:34:08;6.40;99.90
8832;DHT22;4452;50.756;4.472;2024-01-06T01:36:33;6.50;99.90
8832;DHT22;4452;50.756;4.472;2024-01-06T01:38:59;6.50;99.90
8832;DHT22;4452;50.756;4.472;2024-01-06T01:41:25;6.40;99.90
8832;DHT22;4452;50.756;4.472;2024-01-06T01:43:51;6.50;99.90
8832;DHT22;4452;50.756;4.472;2024-01-06T01:46:25;6.40;99.90
8832;DHT22;4452;50.756;4.472;2024-01-06T01:48:52;6.40;99.90
8832;DHT22;4452;50.756;4.472;2024-01-06T01:51:20;6.40;99.90
8832;DHT22;4452;50.756;4.472;2024-01-06T01:53:47;6.50;99.90
8832;DHT22;4452;50.756;4.472;2024-01-06T01:56:13;6.40;99.90
8832;DHT22;4452;50.756;4.472;2024-01-06T01:58:39;6.40;99.90
8832;DHT22;4452;50.756;4.472;2024-01-06T02:01:06;6.40;99.90
8832;DHT22;4452;50.756;4.472;2024-01-06T02:03:32;6.40;99.90
8832;DHT22;4452;50.756;4.472;2024-01-06T02:05:58;6.40;99.90
8832;DHT22;4452;50.756;4.472;2024-01-06T02:08:24;6.40;99.90
8832;DHT22;4452;50.756;4.472;2024-01-06T02:10:50;6.40;99.90
8832;DHT22;4452;50.756;4.472;2024-01-06T02:13:16;6.40;99.90
8832;DHT22;4452;50.756;4.472;2024-01-06T02:15:41;6.40;99.90
8832;DHT22;4452;50.756;4.472;2024-01-06T02:18:07;6.40;99.90
8832;DHT22;4452;50.756;4.472;2024-01-06T02:20:33;6.40;99.90
8832;DHT22;4452;50.756;4.472;2024-01-06T02:22:59;6.40;99.90
8832;DHT22;4452;50.756;4.472;2024-01-06T02:25:26;6.40;99.90
8832;DHT22;4452;50.756;4.472;2024-01-06T02:27:52;6.40;99.90
8832;DHT22;4452;50.756;4.472;2024-01-06T02:30:17;6.40;99.90
8832;DHT22;4452;50.756;4.472;2024-01-06T02:32:43;6.40;99.90
8832;DHT22;4452;50.756;4.472;2024-01-06T02:35:09;6.40;99.90
8832;DHT22;4452;50.756;4.472;2024-01-06T02:37:34;6.40;99.90
8832;DHT22;4452;50.756;4.472;2024-01-06T02:40:00;6.40;99.90
8832;DHT22;4452;50.756;4.472;2024-01-06T02:42:26;6.40;99.90
8832;DHT22;4452;50.756;4.472;2024-01-06T02:44:51;6.40;99.90
8832;DHT22;4452;50.756;4.472;2024-01-06T02:47:17;6.40;99.90
8832;DHT22;4452;50.756;4.472;2024-01-06T02:49:43;6.50;99.90
8832;DHT22;4452;50.756;4.472;2024-01-06T02:52:09;6.50;99.90
8832;DHT22;4452;50.756;4.472;2024-01-06T02:54:34;6.40;99.90
8832;DHT22;4452;50.756;4.472;2024-01-06T02:57:00;6.50;99.90
8832;DHT22;4452;50.756;4.472;2024-01-06T02:59:29;6.60;99.90
8832;DHT22;4452;50.756;4.472;2024-01-06T03:01:54;6.50;99.90
8832;DHT22;4452;50.756;4.472;2024-01-06T03:04:20;6.50;99.90
8832;DHT22;4452;50.756;4.472;2024-01-06T03:06:46;6.50;99.90
8832;DHT22;4452;50.756;4.472;2024-01-06T03:09:17;6.50;99.90
8832;DHT22;4452;50.756;4.472;2024-01-06T03:11:44;6.50;99.90
8832;DHT22;4452;50.756;4.472;2024-01-06T03:14:09;6.50;99.90
8832;DHT22;4452;50.756;4.472;2024-01-06T03:16:35;6.50;99.90
8832;DHT22;4452;50.756;4.472;2024-01-06T03:19:00;6.50;99.90
8832;DHT22;4452;50.756;4.472;2024-01-06T03:21:26;6.50;99.90
8832;DHT22;4452;50.756;4.472;2024-01-06T03:23:52;6.60;99.90
8832;DHT22;4452;50.756;4.472;2024-01-06T03:26:18;6.50;99.90
8832;DHT22;4452;50.756;4.472;2024-01-06T03:28:43;6.50;99.90
8832;DHT22;4452;50.756;4.472;2024-01-06T03:31:09;6.50;99.90
8832;DHT22;4452;50.756;4.472;2024-01-06T03:33:35;6.50;99.90
8832;DHT22;4452;50.756;4.472;2024-01-06T03:36:05;6.50;99.90
8832;DHT22;4452;50.756;4.472;2024-01-06T03:38:31;6.50;99.90
8832;DHT22;4452;50.756;4.472;2024-01-06T03:40:57;6.60;99.90
8832;DHT22;4452;50.756;4.472;2024-01-06T03:43:23;6.50;99.90
8832;DHT22;4452;50.756;4.472;2024-01-06T03:45:49;6.60;99.90
8832;DHT22;4452;50.756;4.472;2024-01-06T03:48:14;6.60;99.90
8832;DHT22;4452;50.756;4.472;2024-01-06T03:50:40;6.50;99.90
8832;DHT22;4452;50.756;4.472;2024-01-06T03:53:06;6.60;99.90
8832;DHT22;4452;50.756;4.472;2024-01-06T03:55:31;6.60;99.90
8832;DHT22;4452;50.756;4.472;2024-01-06T03:57:57;6.60;99.90
8832;DHT22;4452;50.756;4.472;2024-01-06T04:00:25;6.60;99.90
8832;DHT22;4452;50.756;4.472;2024-01-06T04:02:51;6.70;99.90
8832;DHT22;4452;50.756;4.472;2024-01-06T04:05:17;6.70;99.90
8832;DHT22;4452;50.756;4.472;2024-01-06T04:07:42;6.70;99.90
8832;DHT22;4452;50.756;4.472;2024-01-06T04:10:08;6.70;99.90
8832;DHT22;4452;50.756;4.472;2024-01-06T04:12:34;6.70;99.90
8832;DHT22;4452;50.756;4.472;2024-01-06T04:14:59;6.80;99.90
8832;DHT22;4452;50.756;4.472;2024-01-06T04:17:25;6.60;99.90
8832;DHT22;4452;50.756;4.472;2024-01-06T04:19:52;6.90;99.90
8832;DHT22;4452;50.756;4.472;2024-01-06T04:22:18;6.80;99.90
8832;DHT22;4452;50.756;4.472;2024-01-06T04:24:43;6.90;99.90
8832;DHT22;4452;50.756;4.472;2024-01-06T04:27:09;6.90;99.90
8832;DHT22;4452;50.756;4.472;2024-01-06T04:29:35;6.90;99.90
8832;DHT22;4452;50.756;4.472;2024-01-06T04:32:01;6.90;99.90
8832;DHT22;4452;50.756;4.472;2024-01-06T04:34:26;7.00;99.90
8832;DHT22;4452;50.756;4.472;2024-01-06T04:36:52;7.00;99.90
8832;DHT22;4452;50.756;4.472;2024-01-06T04:39:18;7.00;99.90
8832;DHT22;4452;50.756;4.472;2024-01-06T04:41:43;6.90;99.90
8832;DHT22;4452;50.756;4.472;2024-01-06T04:44:09;7.00;99.90
8832;DHT22;4452;50.756;4.472;2024-01-06T04:46:35;7.00;99.90
8832;DHT22;4452;50.756;4.472;2024-01-06T04:49:00;6.90;99.90
8832;DHT22;4452;50.756;4.472;2024-01-06T04:51:26;6.90;99.90
8832;DHT22;4452;50.756;4.472;2024-01-06T04:53:52;6.90;99.90
8832;DHT22;4452;50.756;4.472;2024-01-06T04:56:18;7.00;99.90
8832;DHT22;4452;50.756;4.472;2024-01-06T04:58:44;7.00;99.90
8832;DHT22;4452;50.756;4.472;2024-01-06T05:01:10;6.90;99.90
8832;DHT22;4452;50.756;4.472;2024-01-06T05:03:36;6.90;99.90
8832;DHT22;4452;50.756;4.472;2024-01-06T05:06:01;6.90;99.90
8832;DHT22;4452;50.756;4.472;2024-01-06T05:08:27;7.00;99.90
8832;DHT22;4452;50.756;4.472;2024-01-06T05:10:53;6.90;99.90
8832;DHT22;4452;50.756;4.472;2024-01-06T05:13:19;6.90;99.90
8832;DHT22;4452;50.756;4.472;2024-01-06T05:15:45;6.90;99.90
8832;DHT22;4452;50.756;4.472;2024-01-06T05:18:10;6.90;99.90
8832;DHT22;4452;50.756;4.472;2024-01-06T05:20:36;6.90;99.90
8832;DHT22;4452;50.756;4.472;2024-01-06T05:23:02;6.90;99.90
8832;DHT22;4452;50.756;4.472;2024-01-06T05:25:28;6.90;99.90
8832;DHT22;4452;50.756;4.472;2024-01-06T05:27:53;6.80;99.90
8832;DHT22;4452;50.756;4.472;2024-01-06T05:30:19;6.80;99.90
8832;DHT22;4452;50.756;4.472;2024-01-06T05:32:45;6.80;99.90
8832;DHT22;4452;50.756;4.472;2024-01-06T05:35:10;6.80;99.90
8832;DHT22;4452;50.756;4.472;2024-01-06T05:37:36;6.80;99.90
8832;DHT22;4452;50.756;4.472;2024-01-06T05:40:02;6.80;99.90
8832;DHT22;4452;50.756;4.472;2024-01-06T05:42:29;6.80;99.90
8832;DHT22;4452;50.756;4.472;2024-01-06T05:44:55;6.80;99.90
8832;DHT22;4452;50.756;4.472;2024-01-06T05:47:20;6.70;99.90
8832;DHT22;4452;50.756;4.472;2024-01-06T05:49:46;6.70;99.90
8832;DHT22;4452;50.756;4.472;2024-01-06T05:52:12;6.70;99.90
8832;DHT22;4452;50.756;4.472;2024-01-06T05:54:41;6.70;99.90
8832;DHT22;4452;50.756;4.472;2024-01-06T05:57:10;6.60;99.90
8832;DHT22;4452;50.756;4.472;2024-01-06T05:59:36;6.60;99.90
8832;DHT22;4452;50.756;4.472;2024-01-06T06:02:01;6.50;99.90
8832;DHT22;4452;50.756;4.472;2024-01-06T06:04:27;6.50;99.90
8832;DHT22;4452;50.756;4.472;2024-01-06T06:06:53;6.50;99.90
8832;DHT22;4452;50.756;4.472;2024-01-06T06:09:19;6.50;99.90
8832;DHT22;4452;50.756;4.472;2024-01-06T06:11:46;6.50;99.90
8832;DHT22;4452;50.756;4.472;2024-01-06T06:14:11;6.50;99.90
8832;DHT22;4452;50.756;4.472;2024-01-06T06:16:38;6.60;99.90
8832;DHT22;4452;50.756;4.472;2024-01-06T06:19:04;6.50;99.90
8832;DHT22;4452;50.756;4.472;2024-01-06T06:21:29;6.50;99.90
8832;DHT22;4452;50.756;4.472;2024-01-06T06:23:55;6.40;99.90
8832;DHT22;4452;50.756;4.472;2024-01-06T06:26:21;6.20;99.90
8832;DHT22;4452;50.756;4.472;2024-01-06T06:28:47;6.20;99.90
8832;DHT22;4452;50.756;4.472;2024-01-06T06:31:12;6.10;99.90
8832;DHT22;4452;50.756;4.472;2024-01-06T06:33:38;6.10;99.90
8832;DHT22;4452;50.756;4.472;2024-01-06T06:36:05;6.00;99.90
8832;DHT22;4452;50.756;4.472;2024-01-06T06:38:30;5.90;99.90
8832;DHT22;4452;50.756;4.472;2024-01-06T06:40:56;5.90;99.90
8832;DHT22;4452;50.756;4.472;2024-01-06T06:43:22;5.90;99.90
8832;DHT22;4452;50.756;4.472;2024-01-06T06:45:48;5.90;99.90
8832;DHT22;4452;50.756;4.472;2024-01-06T06:48:13;5.90;99.90
8832;DHT22;4452;50.756;4.472;2024-01-06T06:50:39;5.80;99.90
8832;DHT22;4452;50.756;4.472;2024-01-06T06:53:07;5.80;99.90
8832;DHT22;4452;50.756;4.472;2024-01-06T06:55:32;5.80;99.90
8832;DHT22;4452;50.756;4.472;2024-01-06T06:57:58;5.80;99.90
8832;DHT22;4452;50.756;4.472;2024-01-06T07:00:24;5.70;99.90
8832;DHT22;4452;50.756;4.472;2024-01-06T07:02:50;5.70;99.90
8832;DHT22;4452;50.756;4.472;2024-01-06T07:05:15;5.70;99.90
8832;DHT22;4452;50.756;4.472;2024-01-06T07:07:42;5.70;99.90
8832;DHT22;4452;50.756;4.472;2024-01-06T07:10:12;5.70;99.90
8832;DHT22;4452;50.756;4.472;2024-01-06T07:12:38;5.70;99.90
8832;DHT22;4452;50.756;4.472;2024-01-06T07:15:04;5.70;99.90
8832;DHT22;4452;50.756;4.472;2024-01-06T07:17:30;5.70;99.90
8832;DHT22;4452;50.756;4.472;2024-01-06T07:19:56;5.70;99.90
8832;DHT22;4452;50.756;4.472;2024-01-06T07:22:21;5.70;99.90
8832;DHT22;4452;50.756;4.472;2024-01-06T07:24:47;5.70;99.90
8832;DHT22;4452;50.756;4.472;2024-01-06T07:27:13;5.80;99.90
8832;DHT22;4452;50.756;4.472;2024-01-06T07:29:39;5.70;99.90
8832;DHT22;4452;50.756;4.472;2024-01-06T07:32:05;5.70;99.90
8832;DHT22;4452;50.756;4.472;2024-01-06T07:34:32;5.60;99.90
8832;DHT22;4452;50.756;4.472;2024-01-06T07:36:58;5.60;99.90
8832;DHT22;4452;50.756;4.472;2024-01-06T07:39:23;5.60;99.90
8832;DHT22;4452;50.756;4.472;2024-01-06T07:41:50;5.50;99.90
8832;DHT22;4452;50.756;4.472;2024-01-06T07:44:15;5.50;99.90
8832;DHT22;4452;50.756;4.472;2024-01-06T07:46:42;5.50;99.90
8832;DHT22;4452;50.756;4.472;2024-01-06T07:49:07;5.50;99.90
8832;DHT22;4452;50.756;4.472;2024-01-06T07:51:33;5.60;99.90
8832;DHT22;4452;50.756;4.472;2024-01-06T07:54:01;5.60;99.90
8832;DHT22;4452;50.756;4.472;2024-01-06T07:56:26;5.60;99.90
8832;DHT22;4452;50.756;4.472;2024-01-06T07:58:52;5.40;99.90
8832;DHT22;4452;50.756;4.472;2024-01-06T08:01:18;5.60;99.90
8832;DHT22;4452;50.756;4.472;2024-01-06T08:03:44;5.40;99.90
8832;DHT22;4452;50.756;4.472;2024-01-06T08:06:10;5.30;99.90
8832;DHT22;4452;50.756;4.472;2024-01-06T08:08:35;5.30;99.90
8832;DHT22;4452;50.756;4.472;2024-01-06T08:11:01;5.40;99.90
8832;DHT22;4452;50.756;4.472;2024-01-06T08:13:27;5.30;99.90
8832;DHT22;4452;50.756;4.472;2024-01-06T08:15:53;5.40;99.90
8832;DHT22;4452;50.756;4.472;2024-01-06T08:18:18;5.40;99.90
8832;DHT22;4452;50.756;4.472;2024-01-06T08:20:44;5.40;99.90
8832;DHT22;4452;50.756;4.472;2024-01-06T08:23:10;5.30;99.90
8832;DHT22;4452;50.756;4.472;2024-01-06T08:25:36;5.50;99.90
8832;DHT22;4452;50.756;4.472;2024-01-06T08:28:02;5.40;99.90
8832;DHT22;4452;50.756;4.472;2024-01-06T08:30:27;5.40;99.90
8832;DHT22;4452;50.756;4.472;2024-01-06T08:32:53;5.40;99.90
8832;DHT22;4452;50.756;4.472;2024-01-06T08:35:19;5.40;99.90
8832;DHT22;4452;50.756;4.472;2024-01-06T08:37:45;5.30;99.90
8832;DHT22;4452;50.756;4.472;2024-01-06T08:40:11;5.30;99.90
8832;DHT22;4452;50.756;4.472;2024-01-06T08:42:37;5.30;99.90
8832;DHT22;4452;50.756;4.472;2024-01-06T08:45:04;5.30;99.90
8832;DHT22;4452;50.756;4.472;2024-01-06T08:47:30;5.40;99.90
8832;DHT22;4452;50.756;4.472;2024-01-06T08:49:56;5.50;99.90
8832;DHT22;4452;50.756;4.472;2024-01-06T08:52:22;5.40;99.90
8832;DHT22;4452;50.756;4.472;2024-01-06T08:54:47;5.30;99.90
8832;DHT22;4452;50.756;4.472;2024-01-06T08:57:15;5.30;99.90
8832;DHT22;4452;50.756;4.472;2024-01-06T08:59:41;5.40;99.90
8832;DHT22;4452;50.756;4.472;2024-01-06T09:02:06;5.40;99.90
8832;DHT22;4452;50.756;4.472;2024-01-06T09:04:33;5.50;99.90
8832;DHT22;4452;50.756;4.472;2024-01-06T09:06:59;5.40;99.90
8832;DHT22;4452;50.756;4.472;2024-01-06T09:09:25;5.40;99.90
8832;DHT22;4452;50.756;4.472;2024-01-06T09:11:50;5.40;99.90
8832;DHT22;4452;50.756;4.472;2024-01-06T09:14:19;5.30;99.90
8832;DHT22;4452;50.756;4.472;2024-01-06T09:16:45;5.50;99.90
8832;DHT22;4452;50.756;4.472;2024-01-06T09:19:11;5.20;99.90
8832;DHT22;4452;50.756;4.472;2024-01-06T09:21:36;5.20;99.90
8832;DHT22;4452;50.756;4.472;2024-01-06T09:24:02;5.20;99.90
8832;DHT22;4452;50.756;4.472;2024-01-06T09:26:34;5.20;99.90
8832;DHT22;4452;50.756;4.472;2024-01-06T09:29:01;5.20;99.90
8832;DHT22;4452;50.756;4.472;2024-01-06T09:31:27;5.20;99.90
8832;DHT22;4452;50.756;4.472;2024-01-06T09:33:52;5.20;99.90
8832;DHT22;4452;50.756;4.472;2024-01-06T09:36:18;5.20;99.90
8832;DHT22;4452;50.756;4.472;2024-01-06T09:38:44;5.20;99.90
8832;DHT22;4452;50.756;4.472;2024-01-06T09:41:10;5.30;99.90
8832;DHT22;4452;50.756;4.472;2024-01-06T09:43:36;5.30;99.90
8832;DHT22;4452;50.756;4.472;2024-01-06T09:46:17;5.30;99.90
8832;DHT22;4452;50.756;4.472;2024-01-06T09:48:47;5.30;99.90
8832;DHT22;4452;50.756;4.472;2024-01-06T09:51:15;5.30;99.90
8832;DHT22;4452;50.756;4.472;2024-01-06T09:53:49;5.40;99.90
8832;DHT22;4452;50.756;4.472;2024-01-06T09:56:15;5.30;99.90
8832;DHT22;4452;50.756;4.472;2024-01-06T09:58:41;5.60;99.90
8832;DHT22;4452;50.756;4.472;2024-01-06T10:01:08;5.30;99.90
8832;DHT22;4452;50.756;4.472;2024-01-06T10:03:38;5.20;99.90
8832;DHT22;4452;50.756;4.472;2024-01-06T10:06:04;5.20;99.90
8832;DHT22;4452;50.756;4.472;2024-01-06T10:08:30;5.30;99.90
8832;DHT22;4452;50.756;4.472;2024-01-06T10:10:59;5.20;99.90
8832;DHT22;4452;50.756;4.472;2024-01-06T10:13:25;5.30;99.90
8832;DHT22;4452;50.756;4.472;2024-01-06T10:15:51;5.20;99.90
8832;DHT22;4452;50.756;4.472;2024-01-06T10:18:18;5.10;99.90
8832;DHT22;4452;50.756;4.472;2024-01-06T10:20:44;5.20;99.90
8832;DHT22;4452;50.756;4.472;2024-01-06T10:23:10;5.60;99.90
8832;DHT22;4452;50.756;4.472;2024-01-06T10:25:37;5.20;99.90
8832;DHT22;4452;50.756;4.472;2024-01-06T10:28:03;5.10;99.90
8832;DHT22;4452;50.756;4.472;2024-01-06T10:30:28;5.10;99.90
8832;DHT22;4452;50.756;4.472;2024-01-06T10:32:54;5.20;99.90
8832;DHT22;4452;50.756;4.472;2024-01-06T10:35:20;5.10;99.90
8832;DHT22;4452;50.756;4.472;2024-01-06T10:37:47;5.10;99.90
8832;DHT22;4452;50.756;4.472;2024-01-06T10:40:15;5.00;99.90
8832;DHT22;4452;50.756;4.472;2024-01-06T10:42:42;5.00;99.90
8832;DHT22;4452;50.756;4.472;2024-01-06T10:45:10;5.10;99.90
8832;DHT22;4452;50.756;4.472;2024-01-06T10:47:36;5.10;99.90
8832;DHT22;4452;50.756;4.472;2024-01-06T10:50:03;5.20;99.90
8832;DHT22;4452;50.756;4.472;2024-01-06T10:52:29;5.20;99.90
8832;DHT22;4452;50.756;4.472;2024-01-06T10:54:56;5.10;99.90
8832;DHT22;4452;50.756;4.472;2024-01-06T10:57:22;5.20;99.90
8832;DHT22;4452;50.756;4.472;2024-01-06T10:59:52;5.10;99.90
8832;DHT22;4452;50.756;4.472;2024-01-06T11:02:18;5.10;99.90
8832;DHT22;4452;50.756;4.472;2024-01-06T11:04:45;5.10;99.90
8832;DHT22;4452;50.756;4.472;2024-01-06T11:07:13;5.10;99.90
8832;DHT22;4452;50.756;4.472;2024-01-06T11:09:55;5.20;99.90
8832;DHT22;4452;50.756;4.472;2024-01-06T11:12:21;5.20;99.90
8832;DHT22;4452;50.756;4.472;2024-01-06T11:14:47;5.10;99.90
8832;DHT22;4452;50.756;4.472;2024-01-06T11:17:13;5.10;99.90
8832;DHT22;4452;50.756;4.472;2024-01-06T11:19:44;5.00;99.90
8832;DHT22;4452;50.756;4.472;2024-01-06T11:22:27;5.00;99.90
8832;DHT22;4452;50.756;4.472;2024-01-06T11:24:55;4.90;99.90
8832;DHT22;4452;50.756;4.472;2024-01-06T11:27:26;5.00;99.90
8832;DHT22;4452;50.756;4.472;2024-01-06T11:29:55;5.30;99.90
8832;DHT22;4452;50.756;4.472;2024-01-06T11:32:25;5.00;99.90
8832;DHT22;4452;50.756;4.472;2024-01-06T11:34:53;5.00;99.90
8832;DHT22;4452;50.756;4.472;2024-01-06T11:37:25;4.90;99.90
8832;DHT22;4452;50.756;4.472;2024-01-06T11:39:51;4.90;99.90
8832;DHT22;4452;50.756;4.472;2024-01-06T11:42:18;5.00;99.90
8832;DHT22;4452;50.756;4.472;2024-01-06T11:44:49;5.50;99.90
8832;DHT22;4452;50.756;4.472;2024-01-06T11:47:15;5.00;99.90
8832;DHT22;4452;50.756;4.472;2024-01-06T11:49:44;5.00;99.90
8832;DHT22;4452;50.756;4.472;2024-01-06T11:52:12;5.00;99.90
8832;DHT22;4452;50.756;4.472;2024-01-06T11:54:38;5.00;99.90
8832;DHT22;4452;50.756;4.472;2024-01-06T11:57:04;5.00;99.90
8832;DHT22;4452;50.756;4.472;2024-01-06T11:59:29;5.00;99.90
8832;DHT22;4452;50.756;4.472;2024-01-06T12:01:55;4.90;99.90
8832;DHT22;4452;50.756;4.472;2024-01-06T12:04:21;4.80;99.90
8832;DHT22;4452;50.756;4.472;2024-01-06T12:06:48;5.00;99.90
8832;DHT22;4452;50.756;4.472;2024-01-06T12:09:17;4.90;99.90
8832;DHT22;4452;50.756;4.472;2024-01-06T12:11:44;4.80;99.90
8832;DHT22;4452;50.756;4.472;2024-01-06T12:14:12;4.90;99.90
8832;DHT22;4452;50.756;4.472;2024-01-06T12:16:38;4.90;99.90
8832;DHT22;4452;50.756;4.472;2024-01-06T12:19:04;4.90;99.90
8832;DHT22;4452;50.756;4.472;2024-01-06T12:21:30;4.80;99.90
8832;DHT22;4452;50.756;4.472;2024-01-06T12:24:12;4.70;99.90
8832;DHT22;4452;50.756;4.472;2024-01-06T12:26:41;4.70;99.90
8832;DHT22;4452;50.756;4.472;2024-01-06T12:29:07;4.70;99.90
8832;DHT22;4452;50.756;4.472;2024-01-06T12:31:32;4.60;99.90
8832;DHT22;4452;50.756;4.472;2024-01-06T12:33:59;4.70;99.90
8832;DHT22;4452;50.756;4.472;2024-01-06T12:36:25;4.70;99.90
8832;DHT22;4452;50.756;4.472;2024-01-06T12:38:51;4.90;99.90
8832;DHT22;4452;50.756;4.472;2024-01-06T12:41:16;4.60;99.90
8832;DHT22;4452;50.756;4.472;2024-01-06T12:43:42;4.60;99.90
8832;DHT22;4452;50.756;4.472;2024-01-06T12:46:07;4.70;99.90
8832;DHT22;4452;50.756;4.472;2024-01-06T12:48:33;4.60;99.90
8832;DHT22;4452;50.756;4.472;2024-01-06T12:50:59;5.00;99.90
8832;DHT22;4452;50.756;4.472;2024-01-06T12:53:24;4.80;99.90
8832;DHT22;4452;50.756;4.472;2024-01-06T12:55:50;4.80;99.90
8832;DHT22;4452;50.756;4.472;2024-01-06T12:58:16;4.90;99.90
8832;DHT22;4452;50.756;4.472;2024-01-06T13:00:41;4.90;99.90
8832;DHT22;4452;50.756;4.472;2024-01-06T13:03:07;5.10;99.90
8832;DHT22;4452;50.756;4.472;2024-01-06T13:05:34;4.70;99.90
8832;DHT22;4452;50.756;4.472;2024-01-06T13:08:00;4.70;99.90
8832;DHT22;4452;50.756;4.472;2024-01-06T13:10:27;4.70;99.90
8832;DHT22;4452;50.756;4.472;2024-01-06T13:12:54;4.70;99.90
8832;DHT22;4452;50.756;4.472;2024-01-06T13:15:22;4.70;99.90
8832;DHT22;4452;50.756;4.472;2024-01-06T13:17:51;4.70;99.90
8832;DHT22;4452;50.756;4.472;2024-01-06T13:20:19;4.70;99.90
8832;DHT22;4452;50.756;4.472;2024-01-06T13:22:46;4.80;99.90
8832;DHT22;4452;50.756;4.472;2024-01-06T13:25:15;4.70;99.90
8832;DHT22;4452;50.756;4.472;2024-01-06T13:27:43;4.70;99.90
8832;DHT22;4452;50.756;4.472;2024-01-06T13:30:12;4.70;99.90
8832;DHT22;4452;50.756;4.472;2024-01-06T13:32:40;4.70;99.90
8832;DHT22;4452;50.756;4.472;2024-01-06T13:35:06;4.70;99.90
8832;DHT22;4452;50.756;4.472;2024-01-06T13:37:32;4.70;99.90
8832;DHT22;4452;50.756;4.472;2024-01-06T13:39:58;4.70;99.90
8832;DHT22;4452;50.756;4.472;2024-01-06T13:42:24;4.90;99.90
8832;DHT22;4452;50.756;4.472;2024-01-06T13:44:50;5.10;99.90
8832;DHT22;4452;50.756;4.472;2024-01-06T13:47:16;5.00;99.90
8832;DHT22;4452;50.756;4.472;2024-01-06T13:49:41;4.70;99.90
8832;DHT22;4452;50.756;4.472;2024-01-06T13:52:07;5.00;99.90
8832;DHT22;4452;50.756;4.472;2024-01-06T13:54:35;4.70;99.90
8832;DHT22;4452;50.756;4.472;2024-01-06T13:57:03;4.70;99.90
8832;DHT22;4452;50.756;4.472;2024-01-06T13:59:32;4.70;99.90
8832;DHT22;4452;50.756;4.472;2024-01-06T14:02:04;4.70;99.90
8832;DHT22;4452;50.756;4.472;2024-01-06T14:04:35;4.70;99.90
8832;DHT22;4452;50.756;4.472;2024-01-06T14:07:03;4.70;99.90
8832;DHT22;4452;50.756;4.472;2024-01-06T14:09:32;4.70;99.90
8832;DHT22;4452;50.756;4.472;2024-01-06T14:12:04;4.70;99.90
8832;DHT22;4452;50.756;4.472;2024-01-06T14:14:36;4.70;99.90
8832;DHT22;4452;50.756;4.472;2024-01-06T14:17:04;4.70;99.90
8832;DHT22;4452;50.756;4.472;2024-01-06T14:19:33;4.60;99.90
8832;DHT22;4452;50.756;4.472;2024-01-06T14:22:01;4.70;99.90
8832;DHT22;4452;50.756;4.472;2024-01-06T14:24:30;4.70;99.90
8832;DHT22;4452;50.756;4.472;2024-01-06T14:26:57;4.80;99.90
8832;DHT22;4452;50.756;4.472;2024-01-06T14:29:22;5.00;99.90
8832;DHT22;4452;50.756;4.472;2024-01-06T14:31:48;4.70;99.90
8832;DHT22;4452;50.756;4.472;2024-01-06T14:34:14;4.80;99.90
8832;DHT22;4452;50.756;4.472;2024-01-06T14:36:41;4.70;99.90
8832;DHT22;4452;50.756;4.472;2024-01-06T14:39:14;4.80;99.90
8832;DHT22;4452;50.756;4.472;2024-01-06T14:41:40;4.80;99.90
8832;DHT22;4452;50.756;4.472;2024-01-06T14:44:06;4.80;99.90
8832;DHT22;4452;50.756;4.472;2024-01-06T14:46:32;4.90;99.90
8832;DHT22;4452;50.756;4.472;2024-01-06T14:49:01;4.70;99.90
8832;DHT22;4452;50.756;4.472;2024-01-06T14:51:28;4.70;99.90
8832;DHT22;4452;50.756;4.472;2024-01-06T14:53:54;4.70;99.90
8832;DHT22;4452;50.756;4.472;2024-01-06T14:56:21;4.80;99.90
8832;DHT22;4452;50.756;4.472;2024-01-06T14:58:47;4.90;99.90
8832;DHT22;4452;50.756;4.472;2024-01-06T15:01:13;4.80;99.90
8832;DHT22;4452;50.756;4.472;2024-01-06T15:03:38;4.80;99.90
8832;DHT22;4452;50.756;4.472;2024-01-06T15:06:04;4.80;99.90
8832;DHT22;4452;50.756;4.472;2024-01-06T15:08:30;4.70;99.90
8832;DHT22;4452;50.756;4.472;2024-01-06T15:10:56;4.70;99.90
8832;DHT22;4452;50.756;4.472;2024-01-06T15:13:22;4.70;99.90
8832;DHT22;4452;50.756;4.472;2024-01-06T15:15:47;4.70;99.90
8832;DHT22;4452;50.756;4.472;2024-01-06T15:18:16;4.70;99.90
8832;DHT22;4452;50.756;4.472;2024-01-06T15:20:41;4.80;99.90
8832;DHT22;4452;50.756;4.472;2024-01-06T15:23:07;4.80;99.90
8832;DHT22;4452;50.756;4.472;2024-01-06T15:25:33;4.50;99.90
8832;DHT22;4452;50.756;4.472;2024-01-06T15:27:58;4.60;99.90
8832;DHT22;4452;50.756;4.472;2024-01-06T15:30:24;4.60;99.90
8832;DHT22;4452;50.756;4.472;2024-01-06T15:32:50;4.50;99.90
8832;DHT22;4452;50.756;4.472;2024-01-06T15:35:15;4.50;99.90
8832;DHT22;4452;50.756;4.472;2024-01-06T15:37:41;4.50;99.90
8832;DHT22;4452;50.756;4.472;2024-01-06T15:40:07;4.50;99.90
8832;DHT22;4452;50.756;4.472;2024-01-06T15:42:33;4.50;99.90
8832;DHT22;4452;50.756;4.472;2024-01-06T15:44:59;4.60;99.90
8832;DHT22;4452;50.756;4.472;2024-01-06T15:47:24;4.60;99.90
8832;DHT22;4452;50.756;4.472;2024-01-06T15:49:50;4.60;99.90
8832;DHT22;4452;50.756;4.472;2024-01-06T15:52:16;4.90;99.90
8832;DHT22;4452;50.756;4.472;2024-01-06T15:54:48;4.90;99.90
8832;DHT22;4452;50.756;4.472;2024-01-06T15:57:14;4.60;99.90
8832;DHT22;4452;50.756;4.472;2024-01-06T15:59:40;4.90;99.90
8832;DHT22;4452;50.756;4.472;2024-01-06T16:02:05;4.60;99.90
8832;DHT22;4452;50.756;4.472;2024-01-06T16:04:31;4.50;99.90
8832;DHT22;4452;50.756;4.472;2024-01-06T16:06:57;4.50;99.90
8832;DHT22;4452;50.756;4.472;2024-01-06T16:09:22;4.60;99.90
8832;DHT22;4452;50.756;4.472;2024-01-06T16:11:51;4.60;99.90